Time;durP1;ratioP1;P1;durP2;ratioP2;P2;SDS_P1;SDS_P2;PMS_P1;PMS_P2;Temp;Humidity;BMP_temperature;BMP_pressure;BME280_temperature;BME280_humidity;BME280_pressure;Samples;Min_cycle;Max_cycle;Signal;HPM_P1;HPM_P2
2022/04/01 00:02:25;;;;;;;6.72;3.83;;;;;;;;;;5002819;28;20554;-72
2022/04/01 00:04:51;;;;;;;6.85;3.92;;;;;;;;;;5007160;28;20468;-71
2022/04/01 00:07:18;;;;;;;9.48;3.28;;;;;;;;;;5012667;28;20022;-73
2022/04/01 00:09:45;;;;;;;3.75;3.00;;;;;;;;;;5009908;28;20361;-71
2022/04/01 00:12:11;;;;;;;5.00;2.67;;;;;;;;;;4997760;28;20220;-72
2022/04/01 00:14:38;;;;;;;4.82;3.15;;;;;;;;;;5000749;28;20732;-70
2022/04/01 00:17:04;;;;;;;5.72;2.78;;;;;;;;;;5009055;28;20056;-73
2022/04/01 00:19:30;;;;;;;7.50;3.00;;;;;;;;;;5004833;28;20084;-72
2022/04/01 00:21:56;;;;;;;4.88;3.60;;;;;;;;;;5005929;28;20026;-72
2022/04/01 00:24:23;;;;;;;6.90;3.88;;;;;;;;;;5001411;28;20035;-69
2022/04/01 00:26:49;;;;;;;4.72;3.13;;;;;;;;;;5008332;28;20033;-72
2022/04/01 00:29:15;;;;;;;4.93;2.95;;;;;;;;;;4999573;28;20026;-69
2022/04/01 00:31:45;;;;;;;7.07;2.70;;;;;;;;;;5002953;28;21252;-71
2022/04/01 00:34:17;;;;;;;3.67;2.70;;;;;;;;;;5004265;28;20030;-71
2022/04/01 00:36:44;;;;;;;4.43;3.10;;;;;;;;;;5003567;28;20109;-72
2022/04/01 00:39:10;;;;;;;6.53;2.72;;;;;;;;;;5002155;28;20038;-71
2022/04/01 00:41:36;;;;;;;4.00;3.33;;;;;;;;;;5006659;28;20034;-70
2022/04/01 00:44:19;;;;;;;3.35;2.72;;;;;;;;;;5007070;28;20030;-72
2022/04/01 00:46:47;;;;;;;5.00;2.92;;;;;;;;;;5005170;28;20506;-72
2022/04/01 00:49:13;;;;;;;5.47;3.00;;;;;;;;;;4998308;28;20448;-72
2022/04/01 00:51:42;;;;;;;6.25;3.15;;;;;;;;;;5001448;28;20038;-72
2022/04/01 00:54:08;;;;;;;6.07;3.28;;;;;;;;;;5008890;28;20022;-71
2022/04/01 00:56:35;;;;;;;5.82;2.83;;;;;;;;;;5009751;28;20030;-72
2022/04/01 00:59:02;;;;;;;3.95;2.72;;;;;;;;;;5010628;28;20033;-70
2022/04/01 01:01:28;;;;;;;8.98;3.22;;;;;;;;;;5001483;28;20029;-70
2022/04/01 01:03:54;;;;;;;14.23;3.45;;;;;;;;;;5008735;28;20026;-72
2022/04/01 01:06:22;;;;;;;6.38;3.40;;;;;;;;;;5003278;28;20037;-72
2022/04/01 01:08:48;;;;;;;3.72;2.88;;;;;;;;;;5005379;28;20048;-71
2022/04/01 01:11:14;;;;;;;6.22;2.97;;;;;;;;;;5012357;28;20112;-71
2022/04/01 01:13:41;;;;;;;3.42;2.42;;;;;;;;;;4999955;28;20038;-72
2022/04/01 01:16:07;;;;;;;3.60;2.40;;;;;;;;;;5005185;28;20104;-71
2022/04/01 01:18:35;;;;;;;3.83;2.63;;;;;;;;;;5004789;28;20149;-71
2022/04/01 01:21:01;;;;;;;5.28;2.55;;;;;;;;;;5002116;28;20041;-72
2022/04/01 01:23:29;;;;;;;3.85;2.58;;;;;;;;;;5006717;28;20030;-73
2022/04/01 01:25:56;;;;;;;4.72;2.70;;;;;;;;;;5001901;28;20030;-71
2022/04/01 01:28:23;;;;;;;4.65;2.67;;;;;;;;;;5009604;28;20030;-73
2022/04/01 01:30:49;;;;;;;4.88;2.97;;;;;;;;;;5009970;28;20033;-71
2022/04/01 01:33:15;;;;;;;5.28;2.90;;;;;;;;;;5000273;28;20716;-71
2022/04/01 01:35:42;;;;;;;6.20;3.50;;;;;;;;;;5001902;28;20041;-71
2022/04/01 01:38:08;;;;;;;6.70;2.75;;;;;;;;;;5006589;28;20030;-71
2022/04/01 01:40:34;;;;;;;5.90;3.00;;;;;;;;;;5003861;28;20037;-72
2022/04/01 01:43:01;;;;;;;7.78;3.17;;;;;;;;;;5003378;28;20516;-71
2022/04/01 01:45:29;;;;;;;8.15;3.22;;;;;;;;;;5009816;28;20030;-72
2022/04/01 01:47:56;;;;;;;4.40;3.03;;;;;;;;;;5006251;28;20029;-71
2022/04/01 01:55:51;;;;;;;5.78;3.05;;;;;;;;;;5002906;28;20230;-72
2022/04/01 01:58:18;;;;;;;4.93;3.30;;;;;;;;;;5008505;28;20255;-71
2022/04/01 02:00:45;;;;;;;4.55;2.92;;;;;;;;;;5002303;28;20037;-70
2022/04/01 02:03:12;;;;;;;4.93;3.05;;;;;;;;;;5001914;28;20065;-72
2022/04/01 02:05:38;;;;;;;6.30;2.83;;;;;;;;;;5004051;28;20096;-70
2022/04/01 02:08:05;;;;;;;4.35;2.85;;;;;;;;;;5001952;28;20042;-71
2022/04/01 02:10:32;;;;;;;4.75;2.80;;;;;;;;;;5003878;28;20034;-69
2022/04/01 02:12:58;;;;;;;6.75;3.03;;;;;;;;;;5009548;28;20040;-72
2022/04/01 02:15:25;;;;;;;6.05;3.33;;;;;;;;;;4996707;28;20053;-69
2022/04/01 02:17:51;;;;;;;3.58;3.05;;;;;;;;;;5004295;28;20034;-71
2022/04/01 02:20:17;;;;;;;5.60;3.05;;;;;;;;;;5003122;28;20097;-70
2022/04/01 02:22:46;;;;;;;3.10;2.53;;;;;;;;;;5013867;28;20033;-71
2022/04/01 02:25:12;;;;;;;4.72;3.50;;;;;;;;;;5003159;28;20030;-71
2022/04/01 02:27:39;;;;;;;7.00;2.92;;;;;;;;;;5007158;28;20108;-71
2022/04/01 02:30:12;;;;;;;5.20;3.17;;;;;;;;;;5004625;28;20109;-70
2022/04/01 02:32:42;;;;;;;3.65;2.80;;;;;;;;;;5003106;28;20069;-72
2022/04/01 02:35:08;;;;;;;4.00;2.65;;;;;;;;;;5002103;28;20157;-70
2022/04/01 02:37:35;;;;;;;4.53;2.92;;;;;;;;;;5008309;28;20037;-71
2022/04/01 02:40:02;;;;;;;5.78;2.70;;;;;;;;;;5011701;28;20043;-71
2022/04/01 02:42:28;;;;;;;4.78;3.13;;;;;;;;;;5007527;28;20038;-70
2022/04/01 02:44:55;;;;;;;5.15;3.15;;;;;;;;;;5011408;28;20023;-71
2022/04/01 02:47:21;;;;;;;5.45;3.00;;;;;;;;;;5008167;28;20321;-71
2022/04/01 02:49:47;;;;;;;4.57;3.00;;;;;;;;;;5012494;28;20037;-71
2022/04/01 02:52:13;;;;;;;3.80;2.72;;;;;;;;;;5001020;28;20026;-71
2022/04/01 02:54:40;;;;;;;6.38;2.85;;;;;;;;;;5012599;28;20397;-71
2022/04/01 02:57:06;;;;;;;4.10;2.80;;;;;;;;;;5005218;28;20034;-70
2022/04/01 02:59:32;;;;;;;6.03;2.90;;;;;;;;;;5009913;28;20078;-72
2022/04/01 03:01:58;;;;;;;5.97;3.10;;;;;;;;;;5003269;28;20034;-71
2022/04/01 03:04:24;;;;;;;4.15;2.72;;;;;;;;;;5009401;28;20045;-70
2022/04/01 03:06:50;;;;;;;4.88;3.13;;;;;;;;;;5013451;28;20088;-70
2022/04/01 03:09:16;;;;;;;4.78;2.88;;;;;;;;;;5012927;28;20033;-69
2022/04/01 03:11:43;;;;;;;5.10;2.60;;;;;;;;;;4999534;28;20489;-72
2022/04/01 03:14:11;;;;;;;6.38;3.05;;;;;;;;;;5005868;28;20428;-72
2022/04/01 03:16:38;;;;;;;4.05;2.75;;;;;;;;;;5002813;28;20041;-70
2022/04/01 03:19:08;;;;;;;3.13;2.80;;;;;;;;;;5009413;28;20026;-71
2022/04/01 03:21:39;;;;;;;6.07;4.15;;;;;;;;;;5004953;28;20033;-70
2022/04/01 03:24:06;;;;;;;4.20;2.90;;;;;;;;;;5008025;28;20080;-71
2022/04/01 03:26:32;;;;;;;6.18;2.90;;;;;;;;;;5006313;28;20061;-68
2022/04/01 03:29:01;;;;;;;7.47;3.20;;;;;;;;;;5003099;28;20453;-68
2022/04/01 03:31:28;;;;;;;6.65;2.97;;;;;;;;;;5005845;28;20026;-69
2022/04/01 03:33:54;;;;;;;5.85;2.88;;;;;;;;;;4998342;28;20030;-72
2022/04/01 03:36:20;;;;;;;6.78;2.92;;;;;;;;;;5002958;28;20033;-68
2022/04/01 03:38:47;;;;;;;4.63;2.90;;;;;;;;;;4999798;28;20038;-70
2022/04/01 03:41:13;;;;;;;6.32;3.03;;;;;;;;;;5002109;28;20040;-71
2022/04/01 03:43:40;;;;;;;4.97;2.85;;;;;;;;;;5000883;28;20032;-72
2022/04/01 03:46:14;;;;;;;5.22;2.83;;;;;;;;;;5010609;28;20053;-71
2022/04/01 03:48:42;;;;;;;4.28;2.90;;;;;;;;;;4999629;28;20081;-72
2022/04/01 03:51:09;;;;;;;7.18;3.13;;;;;;;;;;5007058;28;20018;-70
2022/04/01 03:53:38;;;;;;;4.60;2.75;;;;;;;;;;5006859;28;20030;-71
2022/04/01 03:56:06;;;;;;;7.97;2.75;;;;;;;;;;5010188;28;20030;-71
2022/04/01 03:58:33;;;;;;;3.33;2.53;;;;;;;;;;5004617;28;20021;-72
2022/04/01 04:01:01;;;;;;;5.43;2.88;;;;;;;;;;4997486;28;20107;-71
2022/04/01 04:03:29;;;;;;;4.72;4.00;;;;;;;;;;5005287;28;20029;-70
2022/04/01 04:05:56;;;;;;;4.75;2.67;;;;;;;;;;5002004;28;20046;-73
2022/04/01 04:08:23;;;;;;;4.25;3.05;;;;;;;;;;5005574;28;20029;-71
2022/04/01 04:10:49;;;;;;;4.93;3.35;;;;;;;;;;5008840;28;20021;-69
2022/04/01 04:13:16;;;;;;;5.88;3.58;;;;;;;;;;5003773;28;20105;-68
2022/04/01 04:16:04;;;;;;;6.55;3.17;;;;;;;;;;4956220;28;1249598;-70
2022/04/01 04:18:33;;;;;;;5.40;2.60;;;;;;;;;;5002246;28;20078;-72
2022/04/01 04:21:16;;;;;;;4.63;3.03;;;;;;;;;;5005125;28;20065;-71
2022/04/01 04:23:46;;;;;;;5.30;2.80;;;;;;;;;;5003290;28;20713;-71
2022/04/01 04:26:15;;;;;;;4.80;2.95;;;;;;;;;;5008080;28;20022;-71
2022/04/01 04:28:46;;;;;;;5.05;2.90;;;;;;;;;;5003609;28;20085;-72
2022/04/01 04:31:13;;;;;;;6.93;3.03;;;;;;;;;;4997568;28;20026;-70
2022/04/01 04:33:46;;;;;;;4.18;2.65;;;;;;;;;;5005937;28;20113;-71
2022/04/01 04:36:15;;;;;;;4.88;2.97;;;;;;;;;;5007568;28;20487;-71
2022/04/01 04:38:43;;;;;;;5.40;3.10;;;;;;;;;;5000430;28;20044;-71
2022/04/01 04:41:09;;;;;;;4.22;2.95;;;;;;;;;;5006829;28;20040;-71
2022/04/01 04:43:38;;;;;;;5.22;3.10;;;;;;;;;;4999834;28;20053;-70
2022/04/01 04:46:05;;;;;;;4.53;3.03;;;;;;;;;;5003741;28;20388;-71
2022/04/01 04:48:32;;;;;;;6.30;2.72;;;;;;;;;;5004187;28;20036;-71
2022/04/01 04:50:59;;;;;;;5.03;2.60;;;;;;;;;;4999541;28;20021;-72
2022/04/01 04:53:28;;;;;;;7.97;2.88;;;;;;;;;;4998688;28;20026;-70
2022/04/01 04:55:54;;;;;;;5.20;2.97;;;;;;;;;;4999439;28;20033;-71
2022/04/01 04:58:22;;;;;;;5.18;2.63;;;;;;;;;;5007332;28;20037;-71
2022/04/01 05:00:53;;;;;;;5.85;2.90;;;;;;;;;;5006897;28;20159;-71
2022/04/01 05:03:27;;;;;;;5.80;2.70;;;;;;;;;;5000756;28;20041;-72
2022/04/01 05:05:55;;;;;;;3.88;2.92;;;;;;;;;;4996735;28;20204;-70
2022/04/01 05:08:36;;;;;;;5.15;2.95;;;;;;;;;;5003326;28;20040;-72
2022/04/01 05:11:03;;;;;;;5.07;2.78;;;;;;;;;;5008130;28;20022;-69
2022/04/01 05:13:38;;;;;;;8.00;3.63;;;;;;;;;;5016729;28;20030;-69
2022/04/01 05:16:05;;;;;;;5.53;2.70;;;;;;;;;;5015607;28;20689;-69
2022/04/01 05:19:00;;;;;;;4.63;2.85;;;;;;;;;;5016868;28;20036;-70
2022/04/01 05:21:27;;;;;;;4.57;2.90;;;;;;;;;;5003524;28;20049;-69
2022/04/01 05:24:00;;;;;;;4.10;3.25;;;;;;;;;;5008552;28;20033;-68
2022/04/01 05:26:38;;;;;;;3.83;2.83;;;;;;;;;;5005153;28;20389;-71
2022/04/01 05:29:07;;;;;;;5.07;3.00;;;;;;;;;;5006253;28;20045;-70
2022/04/01 05:31:38;;;;;;;6.03;3.13;;;;;;;;;;5002990;28;20094;-71
2022/04/01 05:34:08;;;;;;;4.63;2.75;;;;;;;;;;4999553;28;20037;-70
2022/04/01 05:36:34;;;;;;;6.95;3.83;;;;;;;;;;4999890;28;20049;-71
2022/04/01 05:39:01;;;;;;;5.57;3.70;;;;;;;;;;5004495;28;20480;-70
2022/04/01 05:41:28;;;;;;;5.25;2.67;;;;;;;;;;5015196;28;20025;-68
2022/04/01 05:43:54;;;;;;;5.25;3.33;;;;;;;;;;5011358;28;20029;-72
2022/04/01 05:46:24;;;;;;;6.18;3.72;;;;;;;;;;5003987;28;20031;-71
2022/04/01 05:48:50;;;;;;;5.20;2.83;;;;;;;;;;5011413;28;20367;-72
2022/04/01 05:51:17;;;;;;;5.00;2.60;;;;;;;;;;5001010;28;20061;-72
2022/04/01 05:53:44;;;;;;;7.03;2.72;;;;;;;;;;5005293;28;20655;-71
2022/04/01 05:56:11;;;;;;;9.05;3.20;;;;;;;;;;5000069;28;20029;-69
2022/04/01 05:58:40;;;;;;;5.15;3.00;;;;;;;;;;5003345;28;20033;-70
2022/04/01 06:01:20;;;;;;;4.95;2.92;;;;;;;;;;5010094;28;20022;-70
2022/04/01 06:03:52;;;;;;;5.30;3.00;;;;;;;;;;5000718;28;20037;-71
2022/04/01 06:06:30;;;;;;;6.93;4.20;;;;;;;;;;4996384;28;20539;-71
2022/04/01 06:09:05;;;;;;;4.38;3.10;;;;;;;;;;5013175;28;20559;-71
2022/04/01 06:11:31;;;;;;;6.13;3.00;;;;;;;;;;5004528;28;20044;-71
2022/04/01 06:14:02;;;;;;;4.40;2.80;;;;;;;;;;5010662;28;20053;-70
2022/04/01 06:16:34;;;;;;;5.85;3.10;;;;;;;;;;5002979;28;20154;-72
2022/04/01 06:19:06;;;;;;;4.80;3.00;;;;;;;;;;5005647;28;20054;-70
2022/04/01 06:21:38;;;;;;;6.78;3.35;;;;;;;;;;4996501;28;20105;-72
2022/04/01 06:24:11;;;;;;;6.68;3.72;;;;;;;;;;5003019;28;20038;-70
2022/04/01 06:26:41;;;;;;;6.72;3.38;;;;;;;;;;4993987;28;20034;-70
2022/04/01 06:29:17;;;;;;;4.25;2.88;;;;;;;;;;5003456;28;20034;-70
2022/04/01 06:31:47;;;;;;;6.88;3.20;;;;;;;;;;5006650;28;20120;-71
2022/04/01 06:34:36;;;;;;;5.55;3.10;;;;;;;;;;5002570;28;20027;-69
2022/04/01 06:37:05;;;;;;;4.50;3.03;;;;;;;;;;5003092;28;20030;-69
2022/04/01 06:39:40;;;;;;;4.70;3.08;;;;;;;;;;5006270;28;20037;-71
2022/04/01 06:42:06;;;;;;;7.20;3.40;;;;;;;;;;4999101;28;20038;-71
2022/04/01 06:44:32;;;;;;;6.03;3.78;;;;;;;;;;5003478;28;20026;-71
2022/04/01 06:46:59;;;;;;;10.38;3.35;;;;;;;;;;5000794;28;20029;-70
2022/04/01 06:49:25;;;;;;;5.65;3.67;;;;;;;;;;5008884;28;20065;-70
2022/04/01 06:51:51;;;;;;;7.30;4.05;;;;;;;;;;5001986;28;20066;-71
2022/04/01 06:54:17;;;;;;;6.82;3.03;;;;;;;;;;5001279;28;20030;-69
2022/04/01 06:56:43;;;;;;;5.32;3.35;;;;;;;;;;5001419;28;20472;-70
2022/04/01 06:59:10;;;;;;;4.88;3.55;;;;;;;;;;5004477;28;20026;-71
2022/04/01 07:01:37;;;;;;;4.80;3.03;;;;;;;;;;4995301;28;20054;-71
2022/04/01 07:04:04;;;;;;;5.72;3.10;;;;;;;;;;5003746;28;20030;-69
2022/04/01 07:06:30;;;;;;;5.82;3.03;;;;;;;;;;5000240;28;20030;-72
2022/04/01 07:08:57;;;;;;;6.75;4.05;;;;;;;;;;4996937;28;20105;-70
2022/04/01 07:11:23;;;;;;;5.68;3.47;;;;;;;;;;4996966;28;20038;-71
2022/04/01 07:13:49;;;;;;;5.35;2.95;;;;;;;;;;4998449;28;20033;-72
2022/04/01 07:16:15;;;;;;;4.95;3.20;;;;;;;;;;5002270;28;20776;-71
2022/04/01 07:18:41;;;;;;;5.85;3.10;;;;;;;;;;4995633;28;20287;-70
2022/04/01 07:21:08;;;;;;;3.83;2.90;;;;;;;;;;5009759;28;20053;-69
2022/04/01 07:23:35;;;;;;;6.03;3.58;;;;;;;;;;4998545;28;20504;-72
2022/04/01 07:26:01;;;;;;;5.38;3.10;;;;;;;;;;5000946;28;20034;-71
2022/04/01 07:28:28;;;;;;;6.18;3.28;;;;;;;;;;4999036;28;20570;-72
2022/04/01 07:30:55;;;;;;;4.63;3.58;;;;;;;;;;5001278;28;20033;-71
2022/04/01 07:33:21;;;;;;;5.80;3.67;;;;;;;;;;5016187;28;20029;-70
2022/04/01 07:35:48;;;;;;;5.07;3.05;;;;;;;;;;5006057;28;20029;-72
2022/04/01 07:38:15;;;;;;;5.78;3.22;;;;;;;;;;5014414;28;20105;-70
2022/04/01 07:40:42;;;;;;;6.65;3.08;;;;;;;;;;5004198;28;20145;-72
2022/04/01 07:43:09;;;;;;;4.88;2.95;;;;;;;;;;5002182;28;20037;-71
2022/04/01 07:45:37;;;;;;;4.78;3.20;;;;;;;;;;5002575;28;20022;-71
2022/04/01 07:48:03;;;;;;;4.68;2.63;;;;;;;;;;5004025;28;20025;-71
2022/04/01 07:50:29;;;;;;;7.20;3.72;;;;;;;;;;5004955;28;20269;-71
2022/04/01 07:52:56;;;;;;;5.32;2.88;;;;;;;;;;5001198;28;20117;-70
2022/04/01 07:55:23;;;;;;;5.25;3.33;;;;;;;;;;5007076;28;20180;-70
2022/04/01 07:57:50;;;;;;;4.68;2.80;;;;;;;;;;4999298;28;20040;-72
2022/04/01 08:00:16;;;;;;;8.23;4.07;;;;;;;;;;5000266;28;20034;-72
2022/04/01 08:05:13;;;;;;;4.57;2.92;;;;;;;;;;4949711;28;20124;-69
2022/04/01 08:07:39;;;;;;;5.72;2.92;;;;;;;;;;4960613;28;20046;-71
2022/04/01 08:10:06;;;;;;;4.63;2.70;;;;;;;;;;4966361;28;20158;-71
2022/04/01 08:12:34;;;;;;;4.25;3.45;;;;;;;;;;4964821;28;20031;-73
2022/04/01 08:15:00;;;;;;;6.70;3.10;;;;;;;;;;4960807;28;20023;-70
2022/04/01 08:17:26;;;;;;;7.15;3.30;;;;;;;;;;4960328;28;20025;-69
2022/04/01 08:19:52;;;;;;;7.60;3.58;;;;;;;;;;4961521;28;20062;-70
2022/04/01 08:22:19;;;;;;;5.75;2.70;;;;;;;;;;4962754;28;20031;-70
2022/04/01 08:24:45;;;;;;;4.93;3.08;;;;;;;;;;4963891;28;20034;-70
2022/04/01 08:27:11;;;;;;;5.72;3.17;;;;;;;;;;4964138;28;20516;-70
2022/04/01 08:29:38;;;;;;;5.93;3.03;;;;;;;;;;4965065;28;20053;-71
2022/04/01 08:32:06;;;;;;;3.95;2.78;;;;;;;;;;4962176;28;20118;-70
2022/04/01 08:34:33;;;;;;;5.03;3.10;;;;;;;;;;4972769;28;20533;-71
2022/04/01 08:36:59;;;;;;;6.05;3.10;;;;;;;;;;4965317;28;20126;-69
2022/04/01 08:39:25;;;;;;;8.95;3.00;;;;;;;;;;4963014;28;20488;-71
2022/04/01 08:41:51;;;;;;;6.75;3.00;;;;;;;;;;4964001;28;20038;-71
2022/04/01 08:44:18;;;;;;;3.15;2.60;;;;;;;;;;4962632;28;20561;-70
2022/04/01 08:46:44;;;;;;;5.97;3.20;;;;;;;;;;4961093;28;20076;-71
2022/04/01 08:49:10;;;;;;;5.90;3.08;;;;;;;;;;4964059;28;20047;-71
2022/04/01 08:51:36;;;;;;;5.82;3.00;;;;;;;;;;4969062;28;20054;-69
2022/04/01 08:54:04;;;;;;;8.50;3.75;;;;;;;;;;4964858;28;20495;-72
2022/04/01 08:56:30;;;;;;;3.90;2.63;;;;;;;;;;4978494;28;20480;-70
2022/04/01 08:58:56;;;;;;;4.50;2.70;;;;;;;;;;4959809;28;20046;-71
2022/04/01 09:01:22;;;;;;;2.95;2.50;;;;;;;;;;4961389;28;20034;-72
2022/04/01 09:03:49;;;;;;;5.45;2.35;;;;;;;;;;4967688;28;20053;-71
2022/04/01 09:06:15;;;;;;;4.40;2.20;;;;;;;;;;4964940;28;20034;-73
2022/04/01 09:08:42;;;;;;;6.32;2.70;;;;;;;;;;4965029;28;20035;-72
2022/04/01 09:11:18;;;;;;;4.05;2.65;;;;;;;;;;4963914;28;20496;-72
2022/04/01 09:13:50;;;;;;;6.30;3.05;;;;;;;;;;4961297;28;20034;-73
2022/04/01 09:16:22;;;;;;;4.10;2.72;;;;;;;;;;4962860;28;20503;-70
2022/04/01 09:18:48;;;;;;;4.10;2.25;;;;;;;;;;4963128;28;20027;-72
2022/04/01 09:21:18;;;;;;;4.03;2.38;;;;;;;;;;4961424;28;20058;-70
2022/04/01 09:23:48;;;;;;;3.75;2.85;;;;;;;;;;4963886;28;20031;-70
2022/04/01 09:26:18;;;;;;;5.10;2.28;;;;;;;;;;4960767;28;20031;-71
2022/04/01 09:28:44;;;;;;;5.63;2.65;;;;;;;;;;4962714;28;20081;-71
2022/04/01 09:31:12;;;;;;;3.38;2.58;;;;;;;;;;4961964;28;20031;-72
2022/04/01 09:33:47;;;;;;;4.47;2.28;;;;;;;;;;4960757;28;20077;-72
2022/04/01 09:36:22;;;;;;;3.72;2.92;;;;;;;;;;4961713;28;20043;-71
2022/04/01 09:38:52;;;;;;;5.13;2.50;;;;;;;;;;4970768;28;20065;-72
2022/04/01 09:41:19;;;;;;;6.53;2.20;;;;;;;;;;4961153;28;20046;-71
2022/04/01 09:43:45;;;;;;;4.82;2.70;;;;;;;;;;4962228;28;20105;-72
2022/04/01 09:46:25;;;;;;;4.80;2.00;;;;;;;;;;4962289;28;20026;-72
2022/04/01 09:48:55;;;;;;;4.57;2.55;;;;;;;;;;4963669;28;20380;-72
2022/04/01 09:51:21;;;;;;;2.90;2.20;;;;;;;;;;4962454;28;20390;-70
2022/04/01 09:53:52;;;;;;;3.65;2.50;;;;;;;;;;4968004;28;20094;-70
2022/04/01 09:56:18;;;;;;;5.00;2.45;;;;;;;;;;4965616;28;20031;-72
2022/04/01 09:58:45;;;;;;;4.45;2.20;;;;;;;;;;4961910;28;20030;-72
2022/04/01 10:01:11;;;;;;;2.40;2.20;;;;;;;;;;4961633;28;20027;-69
2022/04/01 10:03:37;;;;;;;6.07;2.22;;;;;;;;;;4969028;28;20058;-73
2022/04/01 10:06:03;;;;;;;4.35;2.25;;;;;;;;;;4959640;28;20135;-71
2022/04/01 10:08:30;;;;;;;2.92;2.20;;;;;;;;;;4960446;28;20030;-71
2022/04/01 10:10:57;;;;;;;3.92;2.38;;;;;;;;;;4960590;28;20031;-71
2022/04/01 10:13:25;;;;;;;2.72;2.17;;;;;;;;;;4958672;28;20109;-72
2022/04/01 10:15:52;;;;;;;2.53;2.30;;;;;;;;;;4961734;28;20546;-72
2022/04/01 10:18:19;;;;;;;4.18;2.55;;;;;;;;;;4961569;28;20043;-71
2022/04/01 10:20:47;;;;;;;2.20;1.75;;;;;;;;;;4960021;28;20031;-71
2022/04/01 10:23:14;;;;;;;7.68;2.00;;;;;;;;;;4962137;28;20080;-72
2022/04/01 10:25:59;;;;;;;7.53;2.78;;;;;;;;;;4961136;28;20027;-72
2022/04/01 10:28:27;;;;;;;4.53;1.90;;;;;;;;;;4962777;28;20041;-71
2022/04/01 10:30:57;;;;;;;2.40;2.00;;;;;;;;;;4993754;28;20444;-73
2022/04/01 10:33:25;;;;;;;4.07;1.80;;;;;;;;;;4960903;28;20700;-73
2022/04/01 10:35:51;;;;;;;3.83;2.67;;;;;;;;;;4961163;28;20041;-71
2022/04/01 10:38:19;;;;;;;2.95;2.00;;;;;;;;;;4960253;28;20031;-71
2022/04/01 10:40:49;;;;;;;2.97;2.10;;;;;;;;;;4960051;28;20724;-72
2022/04/01 10:43:15;;;;;;;3.53;2.10;;;;;;;;;;4971945;28;20050;-71
2022/04/01 10:45:56;;;;;;;4.55;2.10;;;;;;;;;;4964355;28;20551;-71
2022/04/01 10:53:55;;;;;;;6.55;2.15;;;;;;;;;;4968383;28;20523;-70
2022/04/01 10:56:22;;;;;;;4.28;2.00;;;;;;;;;;4966544;28;20093;-71
2022/04/01 10:59:01;;;;;;;4.80;2.38;;;;;;;;;;4966194;28;20030;-72
2022/04/01 11:01:27;;;;;;;3.38;2.10;;;;;;;;;;4968132;28;20030;-72
2022/04/01 11:03:53;;;;;;;3.22;2.38;;;;;;;;;;4966799;28;20558;-71
2022/04/01 11:06:23;;;;;;;4.70;2.75;;;;;;;;;;4966419;28;20035;-71
2022/04/01 11:08:56;;;;;;;5.10;2.47;;;;;;;;;;4963302;28;20499;-71
2022/04/01 11:11:22;;;;;;;4.55;2.63;;;;;;;;;;4967432;28;20058;-70
2022/04/01 11:14:05;;;;;;;4.45;2.50;;;;;;;;;;4964928;28;20110;-71
2022/04/01 11:16:50;;;;;;;4.80;2.10;;;;;;;;;;4964195;28;20035;-71
2022/04/01 11:19:17;;;;;;;4.60;2.10;;;;;;;;;;4963827;28;20046;-71
2022/04/01 11:21:47;;;;;;;3.65;2.25;;;;;;;;;;4965798;28;20030;-71
2022/04/01 11:24:35;;;;;;;3.10;1.98;;;;;;;;;;4965967;28;20066;-70
2022/04/01 11:27:08;;;;;;;4.60;2.97;;;;;;;;;;4968897;28;20661;-72
2022/04/01 11:29:34;;;;;;;3.72;2.30;;;;;;;;;;4968782;28;20114;-72
2022/04/01 11:32:05;;;;;;;2.40;1.92;;;;;;;;;;4966130;28;20081;-71
2022/04/01 11:34:31;;;;;;;6.15;2.35;;;;;;;;;;4963201;28;20077;-71
2022/04/01 11:37:00;;;;;;;3.22;2.20;;;;;;;;;;4964522;28;20471;-71
2022/04/01 11:39:26;;;;;;;3.42;2.38;;;;;;;;;;4964854;28;20031;-70
2022/04/01 11:41:54;;;;;;;5.20;2.72;;;;;;;;;;4965629;28;20027;-74
2022/04/01 11:44:20;;;;;;;3.63;2.25;;;;;;;;;;4993912;28;20069;-73
2022/04/01 11:46:50;;;;;;;3.35;2.40;;;;;;;;;;4966137;28;21928;-73
2022/04/01 11:49:17;;;;;;;3.10;2.13;;;;;;;;;;4962288;28;20389;-69
2022/04/01 11:51:43;;;;;;;5.05;2.45;;;;;;;;;;4965337;28;20026;-71
2022/04/01 11:54:10;;;;;;;3.88;2.63;;;;;;;;;;4965277;28;20034;-71
2022/04/01 11:56:36;;;;;;;6.90;5.75;;;;;;;;;;4964200;28;20403;-71
2022/04/01 11:59:04;;;;;;;5.53;2.35;;;;;;;;;;4966371;28;20031;-73
2022/04/01 12:01:31;;;;;;;4.45;2.20;;;;;;;;;;4965769;28;20117;-71
2022/04/01 12:04:05;;;;;;;2.80;2.00;;;;;;;;;;4964673;28;20507;-74
2022/04/01 12:09:16;;;;;;;2.90;2.17;;;;;;;;;;4962044;28;20037;-71
2022/04/01 12:11:45;;;;;;;7.88;2.30;;;;;;;;;;4963049;28;20027;-72
2022/04/01 12:14:11;;;;;;;2.50;2.30;;;;;;;;;;4975892;28;20062;-72
2022/04/01 12:16:44;;;;;;;2.55;2.35;;;;;;;;;;4963756;28;20571;-71
2022/04/01 12:19:19;;;;;;;3.00;2.47;;;;;;;;;;4960274;28;20042;-71
2022/04/01 12:21:47;;;;;;;3.17;2.13;;;;;;;;;;4965235;28;20118;-73
2022/04/01 12:24:13;;;;;;;5.35;2.28;;;;;;;;;;4964934;28;20026;-72
2022/04/01 12:26:41;;;;;;;2.75;2.25;;;;;;;;;;4964682;28;20027;-71
2022/04/01 12:29:18;;;;;;;3.72;2.30;;;;;;;;;;4965260;28;20019;-72
2022/04/01 12:31:49;;;;;;;4.95;2.63;;;;;;;;;;4963172;28;20026;-73
2022/04/01 12:34:15;;;;;;;3.65;2.20;;;;;;;;;;4962981;28;20113;-71
2022/04/01 12:36:41;;;;;;;3.13;2.20;;;;;;;;;;4967411;28;20162;-73
2022/04/01 12:39:13;;;;;;;4.32;2.25;;;;;;;;;;4964847;28;20035;-72
2022/04/01 12:41:53;;;;;;;3.20;2.20;;;;;;;;;;4965820;28;20035;-73
2022/04/01 12:44:23;;;;;;;2.63;2.00;;;;;;;;;;4967167;28;20118;-74
2022/04/01 12:46:49;;;;;;;4.45;2.40;;;;;;;;;;4966219;28;20035;-72
2022/04/01 12:49:17;;;;;;;5.53;2.15;;;;;;;;;;4965301;28;20050;-73
2022/04/01 12:51:50;;;;;;;2.90;1.95;;;;;;;;;;4964176;28;20026;-73
2022/04/01 12:54:33;;;;;;;3.05;2.10;;;;;;;;;;4990281;28;20058;-72
2022/04/01 12:57:11;;;;;;;2.80;1.95;;;;;;;;;;4963836;28;20030;-71
2022/04/01 12:59:38;;;;;;;3.40;2.30;;;;;;;;;;4964231;28;20030;-73
2022/04/01 13:02:09;;;;;;;3.67;2.03;;;;;;;;;;4964287;28;20092;-72
2022/04/01 13:05:04;;;;;;;2.90;2.17;;;;;;;;;;4964316;28;20420;-73
2022/04/01 13:07:31;;;;;;;2.65;1.95;;;;;;;;;;4958159;28;20134;-73
2022/04/01 13:10:17;;;;;;;6.03;2.38;;;;;;;;;;4963571;28;20114;-72
2022/04/01 13:12:46;;;;;;;4.05;2.20;;;;;;;;;;4964297;28;20535;-75
2022/04/01 13:15:14;;;;;;;5.22;2.40;;;;;;;;;;4963111;28;20121;-75
2022/04/01 13:17:49;;;;;;;4.93;2.63;;;;;;;;;;4964432;28;20085;-76
2022/04/01 13:20:17;;;;;;;2.58;1.90;;;;;;;;;;4963064;28;20054;-73
2022/04/01 13:22:44;;;;;;;3.97;2.13;;;;;;;;;;4963246;28;20562;-73
2022/04/01 13:25:12;;;;;;;3.28;2.42;;;;;;;;;;4965239;28;20088;-72
2022/04/01 13:27:38;;;;;;;2.55;2.30;;;;;;;;;;4963922;28;20035;-72
2022/04/01 13:30:05;;;;;;;2.85;2.00;;;;;;;;;;4966060;28;20390;-72
2022/04/01 13:32:31;;;;;;;4.43;2.00;;;;;;;;;;4966882;28;20035;-74
2022/04/01 13:34:57;;;;;;;3.72;2.00;;;;;;;;;;4959399;28;20027;-72
2022/04/01 13:37:23;;;;;;;3.83;2.60;;;;;;;;;;4963181;28;21378;-72
2022/04/01 13:39:50;;;;;;;3.03;2.60;;;;;;;;;;4980599;28;20086;-71
2022/04/01 13:42:19;;;;;;;4.30;2.10;;;;;;;;;;4965006;28;20042;-73
2022/04/01 13:44:45;;;;;;;4.13;2.40;;;;;;;;;;4964948;28;20027;-71
2022/04/01 13:47:12;;;;;;;4.45;1.95;;;;;;;;;;4962874;28;20038;-74
2022/04/01 13:49:39;;;;;;;2.30;2.10;;;;;;;;;;4967661;28;20023;-71
2022/04/01 13:52:08;;;;;;;3.40;2.20;;;;;;;;;;4964138;28;20691;-71
2022/04/01 13:54:34;;;;;;;9.00;2.08;;;;;;;;;;4964627;28;20042;-73
2022/04/01 13:57:00;;;;;;;2.55;1.85;;;;;;;;;;4961808;28;20023;-72
2022/04/01 13:59:27;;;;;;;3.58;2.10;;;;;;;;;;4957357;28;20250;-71
2022/04/01 14:01:53;;;;;;;3.17;2.22;;;;;;;;;;4959179;28;20027;-71
2022/04/01 14:04:20;;;;;;;4.68;2.30;;;;;;;;;;4960150;28;20050;-71
2022/04/01 14:06:50;;;;;;;2.63;2.00;;;;;;;;;;4961462;28;20587;-73
2022/04/01 14:09:18;;;;;;;3.03;1.80;;;;;;;;;;4961828;28;20046;-73
2022/04/01 14:11:44;;;;;;;5.72;2.45;;;;;;;;;;4958699;28;20031;-71
2022/04/01 14:14:11;;;;;;;2.92;2.03;;;;;;;;;;4960798;28;21015;-74
2022/04/01 14:16:42;;;;;;;4.05;2.10;;;;;;;;;;4969978;28;20112;-70
2022/04/01 14:19:08;;;;;;;4.00;1.90;;;;;;;;;;4969847;28;20031;-70
2022/04/01 14:21:35;;;;;;;3.33;2.15;;;;;;;;;;4968168;28;20117;-73
2022/04/01 14:24:01;;;;;;;2.75;2.08;;;;;;;;;;4966933;28;20035;-70
2022/04/01 14:26:31;;;;;;;5.28;2.40;;;;;;;;;;4968440;28;20033;-71
2022/04/01 14:31:57;;;;;;;2.20;2.00;;;;;;;;;;4964336;28;20085;-73
2022/04/01 14:34:23;;;;;;;4.20;1.92;;;;;;;;;;4968122;28;20045;-70
2022/04/01 14:36:49;;;;;;;3.42;2.10;;;;;;;;;;4962739;28;20031;-71
2022/04/01 14:39:16;;;;;;;3.80;1.90;;;;;;;;;;4964930;28;21133;-71
2022/04/01 14:41:44;;;;;;;3.88;2.20;;;;;;;;;;4967551;28;20042;-71
2022/04/01 14:44:10;;;;;;;2.25;1.90;;;;;;;;;;4961928;28;20019;-70
2022/04/01 14:46:39;;;;;;;4.07;1.90;;;;;;;;;;4964701;28;20031;-71
2022/04/01 14:49:05;;;;;;;3.25;2.00;;;;;;;;;;4963042;28;20291;-71
2022/04/01 14:51:31;;;;;;;2.80;2.00;;;;;;;;;;4963732;28;20498;-69
2022/04/01 14:53:57;;;;;;;2.10;1.90;;;;;;;;;;4963529;28;20026;-71
2022/04/01 14:56:23;;;;;;;2.65;1.85;;;;;;;;;;4966171;28;20046;-71
2022/04/01 14:58:50;;;;;;;3.72;2.55;;;;;;;;;;4965014;28;20046;-69
2022/04/01 15:01:16;;;;;;;4.50;2.08;;;;;;;;;;4963757;28;20169;-71
2022/04/01 15:03:42;;;;;;;3.67;2.20;;;;;;;;;;4966255;28;20133;-70
2022/04/01 15:06:08;;;;;;;3.50;2.20;;;;;;;;;;4966119;28;20031;-69
2022/04/01 15:08:34;;;;;;;2.55;2.00;;;;;;;;;;4963427;28;21068;-71
2022/04/01 15:11:00;;;;;;;3.90;2.38;;;;;;;;;;4966132;28;20035;-72